Bilhorod-Dnistrovs'kyy, Ukraine
Current Conditions -  °F | °C
As of 11:00 AM on Friday 24 Oct 2014 (Local Time) from UKOO Reporting Station
Overcast Overcast  
Wind Chill: 29°   Ceiling: 800
Heat Index: 39°   Visibility: 6mi
Dew Point: 36°   Wind: 22mph
Humidity: 87%   Direction: 70°ENE
Pressure: 30.12"   Gusts: 38mph
Location:  46.2°N, 30.35°E
Report Text: UKOO 240800Z 07010G17MPS 9999 OVC008 04/02 Q1020 34090060 NOSIG
Loading
Personal Weather Stations






























Interactive Weather Map
Tropical Storm Tracking
New forecast layout! Learn more

10-Day Weather Forecast

Advertisements
Track Severe Weather on mobile